createdAt,value
2022-11-12T00:03:28.910Z,11.75
2022-11-12T00:10:33.740Z,11.15
2022-11-12T00:17:40.551Z,11.40
2022-11-12T00:24:44.731Z,10.90
2022-11-12T00:31:48.624Z,10.63
2022-11-12T00:38:55.330Z,12.80
2022-11-12T00:45:59.304Z,10.33
2022-11-12T00:53:03.479Z,10.57
2022-11-12T01:00:17.103Z,13.43
2022-11-12T01:07:21.159Z,11.88
2022-11-12T01:14:25.361Z,18.65
2022-11-12T01:21:34.349Z,10.98
2022-11-12T01:28:39.012Z,13.75
2022-11-12T01:35:42.872Z,12.20
2022-11-12T01:42:55.488Z,11.65
2022-11-12T01:50:04.155Z,12.30
2022-11-12T01:57:08.671Z,10.30
2022-11-12T02:04:15.389Z,11.23
2022-11-12T02:18:25.211Z,9.95
2022-11-12T02:25:32.476Z,9.93
2022-11-12T02:32:36.557Z,9.82
2022-11-12T02:39:40.650Z,10.05
2022-11-12T02:46:47.384Z,9.75
2022-11-12T02:53:51.451Z,10.60
2022-11-12T03:00:56.434Z,9.57
2022-11-12T03:08:05.743Z,9.88
2022-11-12T03:15:11.142Z,9.82
2022-11-12T03:22:15.291Z,9.40
2022-11-12T03:29:22.125Z,9.32
2022-11-12T03:36:25.923Z,9.30
2022-11-12T03:43:29.731Z,9.40
2022-11-12T04:04:44.784Z,9.23
2022-11-12T04:11:48.900Z,9.10
2022-11-12T04:19:08.537Z,9.50
2022-11-12T04:26:27.440Z,9.25
2022-11-12T04:33:31.332Z,8.57
2022-11-12T04:40:48.437Z,8.50
2022-11-12T04:47:55.454Z,8.00
2022-11-12T04:55:00.463Z,8.68
2022-11-12T05:01:52.254Z,8.25
2022-11-12T05:08:59.049Z,8.00
2022-11-12T05:16:02.912Z,7.50
2022-11-12T05:23:07.850Z,7.82
2022-11-12T05:30:16.708Z,7.80
2022-11-12T05:37:21.085Z,7.88
2022-11-12T05:44:25.009Z,8.10
2022-11-12T05:51:31.535Z,7.82
2022-11-12T05:58:35.545Z,8.03
2022-11-12T06:05:39.880Z,8.00
2022-11-12T06:12:46.631Z,7.53
2022-11-12T06:19:50.658Z,7.30
2022-11-12T06:26:54.563Z,8.00
2022-11-12T06:34:01.643Z,7.95
2022-11-12T06:41:06.873Z,8.07
2022-11-12T06:48:10.752Z,7.38
2022-11-12T06:55:17.346Z,8.10
2022-11-12T07:02:21.420Z,8.07
2022-11-12T07:09:25.510Z,8.40
2022-11-12T07:16:31.947Z,8.70
2022-11-12T07:23:38.832Z,8.27
2022-11-12T07:30:42.813Z,8.70
2022-11-12T07:37:49.392Z,8.80
2022-11-12T07:44:53.835Z,8.38
2022-11-12T07:51:58.017Z,8.25
2022-11-12T07:59:04.647Z,8.75
2022-11-12T08:06:09.773Z,8.40
2022-11-12T08:13:13.683Z,9.10
2022-11-12T08:20:20.689Z,9.32
2022-11-12T08:27:24.819Z,8.80
2022-11-12T08:34:28.726Z,9.27
2022-11-12T08:41:35.604Z,9.48
2022-11-12T08:48:40.344Z,9.23
2022-11-12T08:55:44.596Z,9.60
2022-11-12T09:02:51.490Z,9.43
2022-11-12T09:09:55.539Z,9.57
2022-11-12T09:16:59.339Z,9.63
2022-11-12T09:24:07.075Z,9.90
2022-11-12T09:31:12.121Z,9.43
2022-11-12T09:38:17.868Z,10.68
2022-11-12T09:45:32.659Z,9.63
2022-11-12T09:52:37.032Z,9.35
2022-11-12T09:59:45.081Z,9.85
2022-11-12T10:07:00.445Z,9.70
2022-11-12T10:14:18.760Z,10.25
2022-11-12T10:21:32.586Z,10.68
2022-11-12T10:28:48.960Z,11.65
2022-11-12T10:35:54.648Z,11.17
2022-11-12T10:43:04.827Z,10.57
2022-11-12T10:50:21.980Z,10.82
2022-11-12T10:57:29.076Z,10.68
2022-11-12T11:04:35.644Z,11.23
2022-11-12T11:11:53.626Z,10.55
2022-11-12T11:19:01.790Z,9.70
2022-11-12T11:26:23.676Z,10.63
2022-11-12T11:33:43.259Z,10.75
2022-11-12T11:40:59.353Z,11.10
2022-11-12T11:48:18.883Z,11.25
2022-11-12T11:55:45.807Z,10.88
2022-11-12T12:03:19.606Z,10.18
2022-11-12T12:10:53.344Z,11.18
2022-11-12T12:18:06.506Z,11.57
2022-11-12T12:25:17.405Z,12.73
2022-11-12T12:32:26.237Z,14.07
2022-11-12T12:39:47.648Z,13.82
2022-11-12T12:46:59.860Z,14.10
2022-11-12T12:54:04.935Z,13.18
2022-11-12T13:01:29.689Z,15.20
2022-11-12T13:08:39.928Z,15.23
2022-11-12T13:15:49.407Z,15.07
2022-11-12T13:22:56.467Z,14.68
2022-11-12T13:37:08.569Z,15.13
2022-11-12T13:51:32.069Z,15.25
2022-11-12T13:58:40.004Z,14.73
2022-11-12T14:05:52.303Z,18.15
2022-11-12T14:13:18.837Z,14.48
2022-11-12T14:20:30.696Z,15.80
2022-11-12T14:27:40.554Z,14.93
2022-11-12T14:34:44.563Z,14.73
2022-11-12T14:41:50.970Z,15.32
2022-11-12T14:49:02.000Z,15.83
2022-11-12T14:56:08.849Z,15.95
2022-11-12T15:03:20.670Z,14.77
2022-11-12T15:10:40.280Z,15.52
2022-11-12T15:17:44.425Z,17.48
2022-11-12T15:24:49.901Z,17.77
2022-11-12T15:31:58.947Z,16.98
2022-11-12T15:39:03.982Z,18.50
2022-11-12T15:46:08.195Z,19.73
2022-11-12T15:53:15.297Z,18.25
2022-11-12T16:00:23.073Z,18.65
2022-11-12T16:07:27.203Z,19.50
2022-11-12T16:14:34.415Z,18.75
2022-11-12T16:21:38.417Z,17.85
2022-11-12T16:28:43.853Z,19.50
2022-11-12T16:35:50.885Z,20.92
2022-11-12T16:42:55.562Z,20.15
2022-11-12T16:49:59.643Z,22.10
2022-11-12T16:57:06.308Z,20.25
2022-11-12T17:11:14.856Z,22.45
2022-11-12T17:18:21.558Z,23.15
2022-11-12T17:25:25.396Z,23.20
2022-11-12T17:32:29.407Z,23.80
2022-11-12T17:39:36.151Z,23.55
2022-11-12T17:46:40.280Z,22.40
2022-11-12T17:53:45.008Z,23.65
2022-11-12T18:00:51.885Z,23.13
2022-11-12T18:07:56.053Z,22.15
2022-11-12T18:15:00.177Z,20.70
2022-11-12T18:22:07.796Z,20.15
2022-11-12T18:29:12.610Z,19.33
2022-11-12T18:36:19.738Z,19.83
2022-11-12T18:43:26.379Z,20.90
2022-11-12T18:57:34.466Z,19.35
2022-11-12T19:04:45.170Z,18.83
2022-11-12T19:11:49.432Z,19.30
2022-11-12T19:18:56.020Z,19.80
2022-11-12T19:26:03.820Z,18.87
2022-11-12T19:33:07.715Z,18.50
2022-11-12T19:40:14.367Z,17.48
2022-11-12T19:47:20.870Z,17.97
2022-11-12T19:54:24.722Z,17.87
2022-11-12T20:01:28.796Z,17.77
2022-11-12T20:08:35.895Z,18.75
2022-11-12T20:22:45.070Z,17.05
2022-11-12T20:29:51.892Z,18.25
2022-11-12T20:36:57.973Z,16.40
2022-11-12T20:44:03.423Z,17.03
2022-11-12T20:51:23.666Z,17.30
2022-11-12T20:58:29.927Z,16.67
2022-11-12T21:05:34.384Z,17.42
2022-11-12T21:12:40.943Z,16.75
2022-11-12T21:19:45.146Z,15.55
2022-11-12T21:26:51.037Z,15.40
2022-11-12T21:34:01.020Z,15.13
2022-11-12T21:41:07.730Z,15.98
2022-11-12T21:48:11.688Z,15.33
2022-11-12T21:55:18.228Z,16.30
2022-11-12T22:02:22.285Z,15.00
2022-11-12T22:09:26.279Z,14.30
2022-11-12T22:16:33.023Z,14.43
2022-11-12T22:23:38.545Z,13.30
2022-11-12T22:30:42.859Z,13.55
2022-11-12T22:37:49.493Z,13.90
2022-11-12T22:44:53.416Z,14.77
2022-11-12T22:51:57.516Z,14.52
2022-11-12T22:59:05.221Z,15.40
2022-11-12T23:06:10.047Z,16.25
2022-11-12T23:13:14.169Z,16.33
2022-11-12T23:20:21.228Z,16.13
2022-11-12T23:27:25.424Z,14.90
2022-11-12T23:34:29.455Z,15.85
2022-11-12T23:41:36.039Z,15.93
2022-11-12T23:48:40.689Z,14.82
2022-11-12T23:55:45.357Z,14.82
